TimeCDT,TemperatureF,Dew PointF,Humidity,Sea Level PressureIn,VisibilityMPH,Wind Direction,Wind SpeedMPH,Gust SpeedMPH,PrecipitationIn,Events,Conditions,WindDirDegrees,DateUTC
2:53 AM,66.9,61.0,81,29.74,10.0,WSW,4.6,-,N/A,,Mostly Cloudy,240,2012-10-02 07:53:00
3:53 AM,64.9,61.0,87,29.75,10.0,WSW,4.6,-,N/A,,Partly Cloudy,250,2012-10-02 08:53:00
4:53 AM,64.0,61.0,90,29.76,10.0,Calm,Calm,-,N/A,,Mostly Cloudy,0,2012-10-02 09:53:00
5:53 AM,63.0,61.0,93,29.79,10.0,Calm,Calm,-,N/A,,Overcast,0,2012-10-02 10:53:00
6:53 AM,64.9,61.0,87,29.80,10.0,West,4.6,-,N/A,,Overcast,280,2012-10-02 11:53:00
7:53 AM,66.0,61.0,84,29.82,10.0,West,4.6,-,N/A,,Overcast,270,2012-10-02 12:53:00
8:53 AM,69.1,61.0,75,29.85,10.0,West,8.1,-,N/A,,Mostly Cloudy,280,2012-10-02 13:53:00
9:38 AM,71.6,60.8,69,29.87,10.0,WNW,8.1,-,N/A,,Mostly Cloudy,300,2012-10-02 14:38:00
9:53 AM,71.1,60.1,68,29.87,10.0,West,8.1,-,N/A,,Overcast,260,2012-10-02 14:53:00
10:19 AM,73.4,60.8,65,29.88,10.0,West,6.9,-,N/A,,Scattered Clouds,280,2012-10-02 15:19:00
10:53 AM,73.0,60.1,64,29.88,10.0,West,9.2,-,N/A,,Mostly Cloudy,260,2012-10-02 15:53:00
11:18 AM,73.4,60.8,65,29.89,10.0,West,8.1,-,N/A,,Mostly Cloudy,260,2012-10-02 16:18:00
11:27 AM,73.4,60.8,65,29.89,10.0,West,8.1,-,N/A,,Overcast,260,2012-10-02 16:27:00
11:53 AM,73.9,61.0,64,29.88,10.0,WNW,9.2,-,N/A,,Overcast,300,2012-10-02 16:53:00
12:33 PM,73.4,60.8,65,29.89,10.0,WNW,5.8,-,N/A,,Overcast,300,2012-10-02 17:33:00
12:53 PM,75.9,59.0,56,29.88,10.0,West,9.2,-,N/A,,Mostly Cloudy,260,2012-10-02 17:53:00
1:53 PM,75.9,60.1,58,29.87,10.0,Variable,3.5,-,N/A,,Scattered Clouds,0,2012-10-02 18:53:00
2:53 PM,80.1,60.1,50,29.88,10.0,WNW,6.9,-,N/A,,Mostly Cloudy,300,2012-10-02 19:53:00
3:53 PM,77.0,59.0,54,29.88,10.0,WSW,5.8,-,N/A,,Partly Cloudy,250,2012-10-02 20:53:00
4:53 PM,79.0,59.0,50,29.89,10.0,NW,6.9,-,N/A,,Mostly Cloudy,310,2012-10-02 21:53:00
5:53 PM,75.9,59.0,56,29.90,10.0,NNW,5.8,-,N/A,,Clear,330,2012-10-02 22:53:00
6:53 PM,69.1,62.1,78,29.91,10.0,Calm,Calm,-,N/A,,Clear,0,2012-10-02 23:53:00
7:53 PM,66.9,60.1,79,29.94,10.0,Calm,Calm,-,N/A,,Clear,0,2012-10-03 00:53:00
10:53 PM,61.0,57.9,90,30.02,9.0,Calm,Calm,-,N/A,,Clear,0,2012-10-03 03:53:00
11:53 PM,60.1,57.0,90,30.03,7.0,Calm,Calm,-,N/A,,Partly Cloudy,0,2012-10-03 04:53:00